createdAt,value
2018-09-14T00:00:00.039Z,31.4
2018-09-14T00:01:02.477Z,31.4
2018-09-14T00:02:04.908Z,31.4
2018-09-14T00:03:07.340Z,31.5
2018-09-14T00:04:09.786Z,31.5
2018-09-14T00:05:12.206Z,31.5
2018-09-14T00:06:14.627Z,31.5
2018-09-14T00:07:16.776Z,31.5
2018-09-14T00:08:18.932Z,31.5
2018-09-14T00:09:21.364Z,31.5
2018-09-14T00:10:23.796Z,31.5
2018-09-14T00:11:26.231Z,31.5
2018-09-14T00:12:28.685Z,31.5
2018-09-14T00:13:31.117Z,31.5
2018-09-14T00:14:33.550Z,31.5
2018-09-14T00:15:35.716Z,31.5
2018-09-14T00:16:38.157Z,31.5
2018-09-14T00:17:40.587Z,31.5
2018-09-14T00:18:43.014Z,31.5
2018-09-14T00:19:45.447Z,31.5
2018-09-14T00:20:47.908Z,31.5
2018-09-14T00:21:50.336Z,31.5
2018-09-14T00:22:52.501Z,31.5
2018-09-14T00:23:54.927Z,31.5
2018-09-14T00:24:57.360Z,31.5
2018-09-14T00:25:59.487Z,31.5
2018-09-14T00:27:01.358Z,31.5
2018-09-14T00:28:03.784Z,31.5
2018-09-14T00:29:06.215Z,31.5
2018-09-14T00:30:08.668Z,31.5
2018-09-14T00:31:11.090Z,31.5
2018-09-14T00:32:13.531Z,31.5
2018-09-14T00:33:15.970Z,31.5
2018-09-14T00:34:18.396Z,31.5
2018-09-14T00:35:20.825Z,31.5
2018-09-14T00:36:23.253Z,31.5
2018-09-14T00:37:25.685Z,31.5
2018-09-14T00:38:28.116Z,31.5
2018-09-14T00:39:30.546Z,31.5
2018-09-14T00:40:32.987Z,31.5
2018-09-14T00:41:35.423Z,31.5
2018-09-14T00:42:37.612Z,31.5
2018-09-14T00:43:40.046Z,31.5
2018-09-14T00:44:42.474Z,31.5
2018-09-14T00:45:44.906Z,31.5
2018-09-14T00:46:47.336Z,31.5
2018-09-14T00:47:49.766Z,31.5
2018-09-14T00:48:52.200Z,31.5
2018-09-14T00:49:54.666Z,31.5
2018-09-14T00:50:57.098Z,31.5
2018-09-14T00:51:59.525Z,31.5
2018-09-14T00:53:01.685Z,31.5
2018-09-14T00:54:04.116Z,31.5
2018-09-14T00:55:06.537Z,31.5
2018-09-14T00:56:08.970Z,31.5
2018-09-14T00:57:11.156Z,31.5
2018-09-14T00:58:13.588Z,31.5
2018-09-14T00:59:15.749Z,31.5
2018-09-14T01:00:18.179Z,31.5
2018-09-14T01:01:20.607Z,31.5
2018-09-14T01:02:23.032Z,31.5
2018-09-14T01:03:25.165Z,31.5
2018-09-14T01:04:27.317Z,31.6
2018-09-14T01:05:29.470Z,31.5
2018-09-14T01:06:31.631Z,31.5
2018-09-14T01:07:34.068Z,31.5
2018-09-14T01:08:36.516Z,31.5
2018-09-14T01:09:38.954Z,31.5
2018-09-14T01:10:41.384Z,31.5
2018-09-14T01:11:43.814Z,31.5
2018-09-14T01:12:46.265Z,31.6
2018-09-14T01:13:48.697Z,31.6
2018-09-14T01:14:51.132Z,31.6
2018-09-14T01:15:53.561Z,31.6
2018-09-14T01:16:55.994Z,31.5
2018-09-14T01:17:58.462Z,31.5
2018-09-14T01:19:00.888Z,31.6
2018-09-14T01:20:03.383Z,31.6
2018-09-14T01:21:05.562Z,31.6
2018-09-14T01:22:07.714Z,31.5
2018-09-14T01:23:10.147Z,31.6
2018-09-14T01:24:12.594Z,31.6
2018-09-14T01:25:15.026Z,31.6
2018-09-14T01:26:17.457Z,31.6
2018-09-14T01:27:19.888Z,31.6
2018-09-14T01:28:22.335Z,31.6
2018-09-14T01:29:24.759Z,31.6
2018-09-14T01:30:27.185Z,31.6
2018-09-14T01:31:29.612Z,31.6
2018-09-14T01:32:32.044Z,31.6
2018-09-14T01:33:34.497Z,31.6
2018-09-14T01:34:36.919Z,31.6
2018-09-14T01:35:39.352Z,31.6
2018-09-14T01:36:41.489Z,31.6
2018-09-14T01:37:43.646Z,31.6
2018-09-14T01:38:46.075Z,31.6
2018-09-14T01:39:48.512Z,31.6
2018-09-14T01:40:50.939Z,31.6
2018-09-14T01:41:53.367Z,31.6
2018-09-14T01:42:55.793Z,31.6
2018-09-14T01:43:58.222Z,31.6
2018-09-14T01:45:00.646Z,31.6
2018-09-14T01:46:03.076Z,31.6
2018-09-14T01:47:05.515Z,31.6
2018-09-14T01:48:07.977Z,31.6
2018-09-14T01:49:10.404Z,31.6
2018-09-14T01:50:12.832Z,31.6
2018-09-14T01:51:15.269Z,31.6
2018-09-14T01:52:17.704Z,31.6
2018-09-14T01:53:20.130Z,31.6
2018-09-14T01:54:22.560Z,31.6
2018-09-14T01:55:24.988Z,31.6
2018-09-14T01:56:27.411Z,31.6
2018-09-14T01:57:29.830Z,31.6
2018-09-14T01:58:32.262Z,31.6
2018-09-14T01:59:34.415Z,31.6
2018-09-14T02:00:36.850Z,31.6
2018-09-14T02:01:39.276Z,31.6
2018-09-14T02:02:41.711Z,31.6
2018-09-14T02:03:44.143Z,31.6
2018-09-14T02:04:46.576Z,31.6
2018-09-14T02:05:48.740Z,31.6
2018-09-14T02:06:50.868Z,31.6
2018-09-14T02:07:53.296Z,31.6
2018-09-14T02:08:55.730Z,31.6
2018-09-14T02:09:58.162Z,31.6
2018-09-14T02:11:00.586Z,31.6
2018-09-14T02:12:03.025Z,31.6
2018-09-14T02:13:05.458Z,31.6
2018-09-14T02:14:07.882Z,31.6
2018-09-14T02:15:10.325Z,31.6
2018-09-14T02:16:12.776Z,31.6
2018-09-14T02:17:15.204Z,31.6
2018-09-14T02:18:17.626Z,31.6
2018-09-14T02:19:20.053Z,31.6
2018-09-14T02:20:22.210Z,31.6
2018-09-14T02:21:24.640Z,31.6
2018-09-14T02:22:27.068Z,31.6
2018-09-14T02:23:29.502Z,31.6
2018-09-14T02:24:31.932Z,31.6
2018-09-14T02:25:34.533Z,31.6
2018-09-14T02:26:36.745Z,31.6
2018-09-14T02:27:39.176Z,31.6
2018-09-14T02:28:41.640Z,31.6
2018-09-14T02:29:44.067Z,31.6
2018-09-14T02:30:46.502Z,31.6
2018-09-14T02:31:48.938Z,31.6
2018-09-14T02:32:51.364Z,31.6
2018-09-14T02:33:53.536Z,31.6
2018-09-14T02:34:55.962Z,31.6
2018-09-14T02:35:58.399Z,31.6
2018-09-14T02:37:00.834Z,31.6
2018-09-14T02:38:03.264Z,31.6
2018-09-14T02:39:05.713Z,31.6
2018-09-14T02:40:08.138Z,31.6
2018-09-14T02:41:10.566Z,31.6
2018-09-14T02:42:13.026Z,31.6
2018-09-14T02:43:15.176Z,31.6
2018-09-14T02:44:17.604Z,31.6
2018-09-14T02:45:20.040Z,31.7
2018-09-14T02:46:22.468Z,31.6
2018-09-14T02:47:24.891Z,31.6
2018-09-14T02:48:27.031Z,31.7
2018-09-14T02:49:29.496Z,31.7
2018-09-14T02:50:31.923Z,31.6
2018-09-14T02:51:34.346Z,31.7
2018-09-14T02:52:36.787Z,31.6
2018-09-14T02:53:38.944Z,31.6
2018-09-14T02:54:41.385Z,31.7
2018-09-14T02:55:43.539Z,31.6
2018-09-14T02:56:45.983Z,31.6
2018-09-14T02:57:48.150Z,31.7
2018-09-14T02:58:50.576Z,31.7
2018-09-14T02:59:53.010Z,31.7
2018-09-14T03:00:55.443Z,31.7
2018-09-14T03:01:57.876Z,31.6
2018-09-14T03:03:00.308Z,31.6
2018-09-14T03:04:02.738Z,31.6
2018-09-14T03:05:05.175Z,31.6
2018-09-14T03:06:07.637Z,31.6
2018-09-14T03:07:10.066Z,31.6
2018-09-14T03:08:12.236Z,31.6
2018-09-14T03:09:14.661Z,31.6
2018-09-14T03:10:16.522Z,31.6
2018-09-14T03:11:18.948Z,31.6
2018-09-14T03:12:21.375Z,31.6
2018-09-14T03:13:23.540Z,31.6
2018-09-14T03:14:26.000Z,31.5
2018-09-14T03:15:28.438Z,31.5
2018-09-14T03:16:30.877Z,31.5
2018-09-14T03:17:33.304Z,31.5
2018-09-14T03:18:35.745Z,31.5
2018-09-14T03:19:38.174Z,31.5
2018-09-14T03:20:40.603Z,31.5
2018-09-14T03:21:43.029Z,31.5
2018-09-14T03:22:45.456Z,31.5
2018-09-14T03:23:47.889Z,31.5
2018-09-14T03:24:50.318Z,31.5
2018-09-14T03:25:52.756Z,31.5
2018-09-14T03:26:55.186Z,31.5
2018-09-14T03:27:57.625Z,31.5
2018-09-14T03:29:00.076Z,31.5
2018-09-14T03:30:02.503Z,31.5
2018-09-14T03:31:04.927Z,31.5
2018-09-14T03:32:07.393Z,31.5
2018-09-14T03:33:09.859Z,31.5
2018-09-14T03:34:12.292Z,31.5
2018-09-14T03:35:14.725Z,31.5
2018-09-14T03:36:17.155Z,31.5
2018-09-14T03:37:19.317Z,31.5
2018-09-14T03:38:21.737Z,31.5
2018-09-14T03:39:24.507Z,31.5
2018-09-14T03:40:27.217Z,31.5
2018-09-14T03:41:29.645Z,31.5
2018-09-14T03:42:32.129Z,31.4
2018-09-14T03:43:34.550Z,31.4
2018-09-14T03:44:36.993Z,31.4
2018-09-14T03:45:39.432Z,31.4
2018-09-14T03:46:41.897Z,31.4
2018-09-14T03:47:44.327Z,31.4
2018-09-14T03:48:46.766Z,31.4
2018-09-14T03:49:49.206Z,31.4
2018-09-14T03:50:51.631Z,31.4
2018-09-14T03:51:54.056Z,31.4
2018-09-14T03:52:56.494Z,31.4
2018-09-14T03:53:58.946Z,31.4
2018-09-14T03:55:01.400Z,31.4
2018-09-14T03:56:03.817Z,31.4
2018-09-14T03:57:06.345Z,31.4
2018-09-14T03:58:08.838Z,31.4
2018-09-14T03:59:11.021Z,31.4
2018-09-14T04:00:13.450Z,31.4
2018-09-14T04:01:15.873Z,31.4
2018-09-14T04:02:18.311Z,31.4
2018-09-14T04:03:20.743Z,31.4
2018-09-14T04:04:23.185Z,31.4
2018-09-14T04:05:25.618Z,31.4
2018-09-14T04:06:28.046Z,31.4
2018-09-14T04:07:30.499Z,31.4
2018-09-14T04:08:32.917Z,31.4
2018-09-14T04:09:34.815Z,31.4
2018-09-14T04:10:37.249Z,31.3
2018-09-14T04:11:39.672Z,31.3
2018-09-14T04:12:42.114Z,31.3
2018-09-14T04:13:44.563Z,31.3
2018-09-14T04:14:46.996Z,31.3
2018-09-14T04:15:49.424Z,31.3
2018-09-14T04:16:51.889Z,31.3
2018-09-14T04:17:54.316Z,31.3
2018-09-14T04:18:56.745Z,31.3
2018-09-14T04:19:59.172Z,31.3
2018-09-14T04:21:01.334Z,31.3
2018-09-14T04:22:03.765Z,31.3
2018-09-14T04:23:06.207Z,31.3
2018-09-14T04:24:08.654Z,31.3
2018-09-14T04:25:11.079Z,31.3
2018-09-14T04:26:13.542Z,31.3
2018-09-14T04:27:15.975Z,31.3
2018-09-14T04:28:18.406Z,31.3
2018-09-14T04:29:20.850Z,31.3
2018-09-14T04:30:23.277Z,31.3
2018-09-14T04:31:25.430Z,31.3
2018-09-14T04:32:27.856Z,31.3
2018-09-14T04:33:30.298Z,31.3
2018-09-14T04:34:32.728Z,31.3
2018-09-14T04:35:35.166Z,31.3
2018-09-14T04:36:37.318Z,31.3
2018-09-14T04:37:39.755Z,31.3
2018-09-14T04:38:42.535Z,31.3
2018-09-14T04:39:45.324Z,31.3
2018-09-14T04:40:47.756Z,31.3
2018-09-14T04:41:50.195Z,31.3
2018-09-14T04:42:52.633Z,31.3
2018-09-14T04:43:54.771Z,31.3
2018-09-14T04:44:56.923Z,31.3
2018-09-14T04:45:59.346Z,31.3
2018-09-14T04:47:01.781Z,31.3
2018-09-14T04:48:04.208Z,31.3
2018-09-14T04:49:06.637Z,31.3
2018-09-14T04:50:09.068Z,31.3
2018-09-14T04:51:11.586Z,31.3
2018-09-14T04:52:14.067Z,31.3
2018-09-14T04:53:16.505Z,31.3
2018-09-14T04:54:18.657Z,31.3
2018-09-14T04:55:21.089Z,31.2
2018-09-14T04:56:23.527Z,31.2
2018-09-14T04:57:26.308Z,31.3
2018-09-14T04:58:28.924Z,31.2
2018-09-14T04:59:31.364Z,31.2
2018-09-14T05:00:33.798Z,31.2
2018-09-14T05:01:36.229Z,31.2
2018-09-14T05:02:38.390Z,31.2
2018-09-14T05:03:40.817Z,31.2
2018-09-14T05:04:43.244Z,31.2
2018-09-14T05:05:45.677Z,31.2
2018-09-14T05:06:47.850Z,31.2
2018-09-14T05:07:50.276Z,31.2
2018-09-14T05:08:52.714Z,31.2
2018-09-14T05:09:55.149Z,31.2
2018-09-14T05:10:57.615Z,31.2
2018-09-14T05:11:59.757Z,31.2
2018-09-14T05:13:02.188Z,31.2
2018-09-14T05:14:04.694Z,31.2
2018-09-14T05:15:07.302Z,31.2
2018-09-14T05:16:09.466Z,31.2
2018-09-14T05:17:11.631Z,31.2
2018-09-14T05:18:14.060Z,31.2
2018-09-14T05:19:16.486Z,31.2
2018-09-14T05:20:18.685Z,31.2
2018-09-14T05:21:21.118Z,31.2
2018-09-14T05:22:23.553Z,31.2
2018-09-14T05:23:25.993Z,31.2
2018-09-14T05:24:28.536Z,31.2
2018-09-14T05:25:31.121Z,31.2
2018-09-14T05:26:33.554Z,31.2
2018-09-14T05:27:36.010Z,31.2
2018-09-14T05:28:38.458Z,31.2
2018-09-14T05:29:40.914Z,31.2
2018-09-14T05:30:43.378Z,31.2
2018-09-14T05:31:45.868Z,31.2
2018-09-14T05:32:48.350Z,31.2
2018-09-14T05:33:50.788Z,31.2
2018-09-14T05:34:53.229Z,31.2
2018-09-14T05:35:55.374Z,31.2
2018-09-14T05:36:57.806Z,31.2
2018-09-14T05:38:00.248Z,31.2
2018-09-14T05:39:02.679Z,31.2
2018-09-14T05:40:05.109Z,31.1
2018-09-14T05:41:07.530Z,31.1
2018-09-14T05:42:09.952Z,31.1
2018-09-14T05:43:12.378Z,31.1
2018-09-14T05:44:14.813Z,31.1
2018-09-14T05:45:17.246Z,31.1
2018-09-14T05:46:19.675Z,31.1
2018-09-14T05:47:22.108Z,31.1
2018-09-14T05:48:24.557Z,31.1
2018-09-14T05:49:26.971Z,31.1
2018-09-14T05:50:29.407Z,31.1
2018-09-14T05:51:31.572Z,31.1
2018-09-14T05:52:34.098Z,31.1
2018-09-14T05:53:36.252Z,31.1
2018-09-14T05:54:38.915Z,31.1
2018-09-14T05:55:41.060Z,31.1
2018-09-14T05:56:43.499Z,31.1
2018-09-14T05:57:45.940Z,31.1
2018-09-14T05:58:48.075Z,31.1
2018-09-14T05:59:50.509Z,31.1
2018-09-14T06:00:52.949Z,31.1
2018-09-14T06:01:55.395Z,31.1
2018-09-14T06:02:57.566Z,31.1
2018-09-14T06:04:00.005Z,31.1
2018-09-14T06:05:02.434Z,31.1
2018-09-14T06:06:04.860Z,31.1
2018-09-14T06:07:07.293Z,31.1
2018-09-14T06:08:09.754Z,31.1
2018-09-14T06:09:12.191Z,31.1
2018-09-14T06:10:14.632Z,31.1
2018-09-14T06:11:17.070Z,31.1
2018-09-14T06:12:19.506Z,31.1
2018-09-14T06:13:21.935Z,31.1
2018-09-14T06:14:24.089Z,31.1
2018-09-14T06:15:26.521Z,31.1
2018-09-14T06:16:28.946Z,31.1
2018-09-14T06:17:31.269Z,31.1
2018-09-14T06:18:33.721Z,31.1
2018-09-14T06:19:36.143Z,31.1
2018-09-14T06:20:38.581Z,31.1
2018-09-14T06:21:41.039Z,31.1
2018-09-14T06:22:43.751Z,31.1
2018-09-14T06:23:46.020Z,31.1
2018-09-14T06:24:48.165Z,31.1
2018-09-14T06:25:50.600Z,31.1
2018-09-14T06:26:53.029Z,31.1
2018-09-14T06:27:55.233Z,31.1
2018-09-14T06:28:57.700Z,31.1
2018-09-14T06:30:00.136Z,31.1
2018-09-14T06:31:02.574Z,31.1
2018-09-14T06:32:05.095Z,31.1
2018-09-14T06:33:07.559Z,31.1
2018-09-14T06:34:10.000Z,31.1
2018-09-14T06:35:12.154Z,31.1
2018-09-14T06:36:14.337Z,31.1
2018-09-14T06:37:16.776Z,31.1
2018-09-14T06:38:19.026Z,31.1
2018-09-14T06:39:21.706Z,31.1
2018-09-14T06:40:24.168Z,31.1
2018-09-14T06:41:26.599Z,31.1
2018-09-14T06:42:29.030Z,31.1
2018-09-14T06:43:31.467Z,31.1
2018-09-14T06:44:33.631Z,31.1
2018-09-14T06:45:36.069Z,31.1
2018-09-14T06:46:38.512Z,31.1
2018-09-14T06:47:40.955Z,31.1
2018-09-14T06:48:43.391Z,31.1
2018-09-14T06:49:45.818Z,31.1
2018-09-14T06:50:48.245Z,31.1
2018-09-14T06:51:50.715Z,31.1
2018-09-14T06:52:53.140Z,31.1
2018-09-14T06:53:55.567Z,31.1
2018-09-14T06:54:58.006Z,31.1
2018-09-14T06:56:00.159Z,31.1
2018-09-14T06:57:02.595Z,31.1
2018-09-14T06:58:04.753Z,31.1
2018-09-14T06:59:07.189Z,31.1
2018-09-14T07:00:09.904Z,31.1
2018-09-14T07:01:12.640Z,31.1
2018-09-14T07:02:15.058Z,31.1
2018-09-14T07:03:17.503Z,31.1
2018-09-14T07:04:20.026Z,31.1
2018-09-14T07:05:22.467Z,31.1
2018-09-14T07:06:25.053Z,31.1
2018-09-14T07:07:27.697Z,31.1
2018-09-14T07:08:30.130Z,31.1
2018-09-14T07:09:32.272Z,31.1
2018-09-14T07:10:34.707Z,31.1
2018-09-14T07:11:37.374Z,31.1
2018-09-14T07:12:39.978Z,31.1
2018-09-14T07:13:42.424Z,31.1
2018-09-14T07:14:44.876Z,31.1
2018-09-14T07:15:47.316Z,31.1
2018-09-14T07:16:49.757Z,31.1
2018-09-14T07:17:52.196Z,31.1
2018-09-14T07:18:54.631Z,31.1
2018-09-14T07:19:57.086Z,31.1
2018-09-14T07:20:59.521Z,31.1
2018-09-14T07:22:02.028Z,31.1
2018-09-14T07:23:03.998Z,31.1
2018-09-14T07:24:06.432Z,31.1
2018-09-14T07:25:08.873Z,31.1
2018-09-14T07:26:11.307Z,31.1
2018-09-14T07:27:13.794Z,31.1
2018-09-14T07:28:16.239Z,31.1
2018-09-14T07:29:19.052Z,31.1
2018-09-14T07:30:21.538Z,31.1
2018-09-14T07:31:23.982Z,31.1
2018-09-14T07:32:26.508Z,31.1
2018-09-14T07:33:28.956Z,31.1
2018-09-14T07:34:31.451Z,31.1
2018-09-14T07:35:33.880Z,31.1
2018-09-14T07:36:36.655Z,31.1
2018-09-14T07:37:39.348Z,31.1
2018-09-14T07:38:41.787Z,31.1
2018-09-14T07:39:44.227Z,31.1
2018-09-14T07:40:46.675Z,31.1
2018-09-14T07:41:49.106Z,31.1
2018-09-14T07:42:51.548Z,31.1
2018-09-14T07:43:53.999Z,31.1
2018-09-14T07:44:56.429Z,31.1
2018-09-14T07:45:58.863Z,31.1
2018-09-14T07:47:01.292Z,31.1
2018-09-14T07:48:03.735Z,31.1
2018-09-14T07:49:06.174Z,31.1
2018-09-14T07:50:08.624Z,31.1
2018-09-14T07:51:11.064Z,31.1
2018-09-14T07:52:13.509Z,31
2018-09-14T07:53:15.953Z,31
2018-09-14T07:54:18.400Z,31.1
2018-09-14T07:55:20.920Z,31.1
2018-09-14T07:56:23.505Z,31.1
2018-09-14T07:57:25.661Z,31.1
2018-09-14T07:58:28.081Z,31
2018-09-14T07:59:30.518Z,31
2018-09-14T08:00:32.951Z,31.1
2018-09-14T08:01:35.383Z,31
2018-09-14T08:02:37.835Z,31
2018-09-14T08:03:40.308Z,31
2018-09-14T08:04:42.733Z,31
2018-09-14T08:05:45.165Z,31
2018-09-14T08:06:47.596Z,31.1
2018-09-14T08:07:50.028Z,31
2018-09-14T08:08:52.467Z,31
2018-09-14T08:09:54.907Z,31
2018-09-14T08:10:57.338Z,31
2018-09-14T08:11:59.656Z,31
2018-09-14T08:13:01.632Z,31
2018-09-14T08:14:03.508Z,31
2018-09-14T08:15:05.379Z,31
2018-09-14T08:16:07.825Z,31
2018-09-14T08:17:10.257Z,31
2018-09-14T08:18:12.416Z,31
2018-09-14T08:19:14.841Z,31
2018-09-14T08:20:17.621Z,31
2018-09-14T08:21:20.787Z,31
2018-09-14T08:22:23.551Z,31
2018-09-14T08:23:25.978Z,31
2018-09-14T08:24:28.417Z,31
2018-09-14T08:25:30.851Z,31
2018-09-14T08:26:33.294Z,31
2018-09-14T08:27:35.731Z,31
2018-09-14T08:28:38.169Z,31
2018-09-14T08:29:40.590Z,31
2018-09-14T08:30:43.018Z,31
2018-09-14T08:31:45.449Z,31
2018-09-14T08:32:47.888Z,31
2018-09-14T08:33:50.332Z,31
2018-09-14T08:34:52.768Z,31
2018-09-14T08:35:55.215Z,31
2018-09-14T08:36:57.660Z,31
2018-09-14T08:38:00.088Z,31
2018-09-14T08:39:02.520Z,31
2018-09-14T08:40:04.951Z,31
2018-09-14T08:41:07.119Z,31
2018-09-14T08:42:09.559Z,31
2018-09-14T08:43:11.997Z,31
2018-09-14T08:44:14.159Z,31
2018-09-14T08:45:16.600Z,31
2018-09-14T08:46:19.042Z,31
2018-09-14T08:47:21.475Z,31
2018-09-14T08:48:23.905Z,31
2018-09-14T08:49:26.339Z,31
2018-09-14T08:50:28.768Z,31
2018-09-14T08:51:31.212Z,31
2018-09-14T08:52:33.635Z,31
2018-09-14T08:53:36.234Z,31
2018-09-14T08:54:38.730Z,31
2018-09-14T08:55:41.197Z,31
2018-09-14T08:56:43.347Z,31
2018-09-14T08:57:45.786Z,31
2018-09-14T08:58:48.220Z,31
2018-09-14T08:59:50.649Z,31
2018-09-14T09:00:53.491Z,31
2018-09-14T09:01:56.294Z,31
2018-09-14T09:02:58.743Z,31
2018-09-14T09:04:01.430Z,31
2018-09-14T09:05:03.862Z,31
2018-09-14T09:06:06.309Z,31
2018-09-14T09:07:08.840Z,31
2018-09-14T09:08:11.427Z,31
2018-09-14T09:09:14.124Z,31
2018-09-14T09:10:16.738Z,31
2018-09-14T09:11:18.992Z,31
2018-09-14T09:12:21.503Z,31
2018-09-14T09:13:23.949Z,31
2018-09-14T09:14:26.379Z,31
2018-09-14T09:15:28.820Z,31
2018-09-14T09:16:31.252Z,31
2018-09-14T09:17:33.703Z,31
2018-09-14T09:18:36.220Z,31
2018-09-14T09:19:38.656Z,31
2018-09-14T09:20:41.088Z,31
2018-09-14T09:21:43.520Z,31
2018-09-14T09:22:45.963Z,31
2018-09-14T09:23:48.128Z,31
2018-09-14T09:24:50.327Z,31
2018-09-14T09:25:52.756Z,31
2018-09-14T09:26:55.183Z,31
2018-09-14T09:27:57.622Z,31
2018-09-14T09:29:00.047Z,31
2018-09-14T09:30:02.491Z,31
2018-09-14T09:31:04.937Z,31
2018-09-14T09:32:07.380Z,31
2018-09-14T09:33:09.811Z,31
2018-09-14T09:34:12.240Z,31
2018-09-14T09:35:14.678Z,31
2018-09-14T09:36:17.122Z,31
2018-09-14T09:37:19.543Z,31
2018-09-14T09:38:21.975Z,31
2018-09-14T09:39:24.413Z,31
2018-09-14T09:40:26.885Z,31
2018-09-14T09:41:29.327Z,31
2018-09-14T09:42:31.766Z,31
2018-09-14T09:43:35.006Z,31
2018-09-14T09:44:38.297Z,31
2018-09-14T09:45:40.738Z,31
2018-09-14T09:46:43.168Z,31
2018-09-14T09:47:45.610Z,31
2018-09-14T09:48:48.036Z,31
2018-09-14T09:49:50.480Z,31
2018-09-14T09:50:53.295Z,31
2018-09-14T09:51:55.972Z,31
2018-09-14T09:52:58.404Z,31
2018-09-14T09:54:00.838Z,31
2018-09-14T09:55:03.274Z,31
2018-09-14T09:56:05.731Z,31
2018-09-14T09:57:08.157Z,31
2018-09-14T09:58:10.612Z,31
2018-09-14T09:59:13.035Z,31
2018-09-14T10:00:15.460Z,31
2018-09-14T10:01:17.905Z,31
2018-09-14T10:02:20.344Z,31
2018-09-14T10:03:22.794Z,31
2018-09-14T10:04:25.253Z,31
2018-09-14T10:05:27.675Z,31
2018-09-14T10:06:30.117Z,31
2018-09-14T10:07:32.556Z,31
2018-09-14T10:08:34.716Z,31
2018-09-14T10:09:36.868Z,31
2018-09-14T10:10:39.300Z,31
2018-09-14T10:11:41.732Z,31
2018-09-14T10:12:44.169Z,31
2018-09-14T10:13:46.594Z,31
2018-09-14T10:14:49.045Z,31
2018-09-14T10:15:51.486Z,31
2018-09-14T10:16:53.935Z,31
2018-09-14T10:17:56.365Z,31
2018-09-14T10:18:58.517Z,31
2018-09-14T10:20:00.949Z,31
2018-09-14T10:21:03.283Z,31
2018-09-14T10:22:05.811Z,31
2018-09-14T10:23:08.259Z,31
2018-09-14T10:24:10.706Z,31
2018-09-14T10:25:12.879Z,31
2018-09-14T10:26:15.316Z,31
2018-09-14T10:27:17.752Z,31
2018-09-14T10:28:20.193Z,31
2018-09-14T10:29:22.630Z,31
2018-09-14T10:30:24.761Z,31
2018-09-14T10:31:27.213Z,31
2018-09-14T10:32:29.642Z,31.1
2018-09-14T10:33:32.084Z,31
2018-09-14T10:34:34.520Z,31
2018-09-14T10:35:36.946Z,31.1
2018-09-14T10:36:39.406Z,31.1
2018-09-14T10:37:41.837Z,31.1
2018-09-14T10:38:44.284Z,31.1
2018-09-14T10:39:46.444Z,31.1
2018-09-14T10:40:49.220Z,31.1
2018-09-14T10:41:51.938Z,31.1
2018-09-14T10:42:54.489Z,31.1
2018-09-14T10:43:57.261Z,31.1
2018-09-14T10:44:59.733Z,31.1
2018-09-14T10:46:02.183Z,31.1
2018-09-14T10:47:04.347Z,31.1
2018-09-14T10:48:06.528Z,31.1
2018-09-14T10:49:08.978Z,31.1
2018-09-14T10:50:11.426Z,31.1
2018-09-14T10:51:13.865Z,31
2018-09-14T10:52:16.305Z,31
2018-09-14T10:53:18.455Z,31
2018-09-14T10:54:20.885Z,31
2018-09-14T10:55:23.295Z,31
2018-09-14T10:56:25.906Z,31
2018-09-14T10:57:28.356Z,31
2018-09-14T10:58:30.782Z,31
2018-09-14T10:59:33.215Z,31
2018-09-14T11:00:35.673Z,31
2018-09-14T11:01:38.153Z,31.1
2018-09-14T11:02:40.575Z,31
2018-09-14T11:03:43.021Z,31
2018-09-14T11:04:45.452Z,31
2018-09-14T11:05:47.897Z,31
2018-09-14T11:06:50.392Z,31
2018-09-14T11:07:52.750Z,31.1
2018-09-14T11:08:54.916Z,31
2018-09-14T11:09:57.491Z,31
2018-09-14T11:11:00.095Z,31.1
2018-09-14T11:12:02.521Z,31
2018-09-14T11:13:05.161Z,31.1
2018-09-14T11:14:08.088Z,31
2018-09-14T11:15:10.516Z,31
2018-09-14T11:16:12.970Z,31.1
2018-09-14T11:17:15.407Z,31
2018-09-14T11:18:17.585Z,31
2018-09-14T11:19:20.034Z,31
2018-09-14T11:20:22.468Z,31
2018-09-14T11:21:24.967Z,31.1
2018-09-14T11:22:27.408Z,31.1
2018-09-14T11:23:29.842Z,31.1
2018-09-14T11:24:32.394Z,31
2018-09-14T11:25:34.683Z,31.1
2018-09-14T11:26:37.124Z,31
2018-09-14T11:27:39.565Z,31.1
2018-09-14T11:28:42.015Z,31
2018-09-14T11:29:44.457Z,31
2018-09-14T11:30:46.907Z,31
2018-09-14T11:31:49.344Z,31
2018-09-14T11:32:51.775Z,31
2018-09-14T11:33:54.207Z,31.1
2018-09-14T11:34:56.666Z,31
2018-09-14T11:35:58.855Z,31.1
2018-09-14T11:37:01.297Z,31.1
2018-09-14T11:38:03.843Z,31
2018-09-14T11:39:06.355Z,31.1
2018-09-14T11:40:08.785Z,31
2018-09-14T11:41:10.662Z,31
2018-09-14T11:42:13.116Z,31
2018-09-14T11:43:15.267Z,31
2018-09-14T11:44:17.130Z,31
2018-09-14T11:45:19.812Z,31
2018-09-14T11:46:21.960Z,31
2018-09-14T11:47:24.116Z,31
2018-09-14T11:48:26.548Z,31.1
2018-09-14T11:49:28.981Z,31
2018-09-14T11:50:31.419Z,31.1
2018-09-14T11:51:33.850Z,31.1
2018-09-14T11:52:36.290Z,31.1
2018-09-14T11:53:38.733Z,31.1
2018-09-14T11:54:40.901Z,31.1
2018-09-14T11:55:43.335Z,31.1
2018-09-14T11:56:45.784Z,31.1
2018-09-14T11:57:48.216Z,31.1
2018-09-14T11:58:50.671Z,31.1
2018-09-14T11:59:53.090Z,31.1
2018-09-14T12:00:55.524Z,31.1
2018-09-14T12:01:57.952Z,31.1
2018-09-14T12:03:00.386Z,31.1
2018-09-14T12:04:02.829Z,31.1
2018-09-14T12:05:05.296Z,31.1
2018-09-14T12:06:07.731Z,31.1
2018-09-14T12:07:10.170Z,31.1
2018-09-14T12:08:12.603Z,31.1
2018-09-14T12:09:15.050Z,31.1
2018-09-14T12:10:17.511Z,31.1
2018-09-14T12:11:19.946Z,31.1
2018-09-14T12:12:22.080Z,31.1
2018-09-14T12:13:24.517Z,31.1
2018-09-14T12:14:26.963Z,31.1
2018-09-14T12:15:29.412Z,31.1
2018-09-14T12:16:31.849Z,31.1
2018-09-14T12:17:34.286Z,31.1
2018-09-14T12:18:36.717Z,31.1
2018-09-14T12:19:39.155Z,31.1
2018-09-14T12:20:41.603Z,31.1
2018-09-14T12:21:44.030Z,31.1
2018-09-14T12:22:46.462Z,31.1
2018-09-14T12:23:48.919Z,31.1
2018-09-14T12:24:51.390Z,31.1
2018-09-14T12:25:53.841Z,31.1
2018-09-14T12:26:56.295Z,31.1
2018-09-14T12:27:58.745Z,31.1
2018-09-14T12:29:01.195Z,31.1
2018-09-14T12:30:03.367Z,31.1
2018-09-14T12:31:05.811Z,31.1
2018-09-14T12:32:08.233Z,31.1
2018-09-14T12:33:10.657Z,31.1
2018-09-14T12:34:13.158Z,31.1
2018-09-14T12:35:15.596Z,31.1
2018-09-14T12:36:18.035Z,31.1
2018-09-14T12:37:20.268Z,31.1
2018-09-14T12:38:22.416Z,31.1
2018-09-14T12:39:24.848Z,31.1
2018-09-14T12:40:27.005Z,31.1
2018-09-14T12:41:29.470Z,31.1
2018-09-14T12:42:31.895Z,31.1
2018-09-14T12:43:34.323Z,31.1
2018-09-14T12:44:36.746Z,31.1
2018-09-14T12:45:39.201Z,31.1
2018-09-14T12:46:41.647Z,31.1
2018-09-14T12:47:44.098Z,31.1
2018-09-14T12:48:46.829Z,31.1
2018-09-14T12:49:49.528Z,31.1
2018-09-14T12:50:51.979Z,31.1
2018-09-14T12:51:54.421Z,31.1
2018-09-14T12:52:56.861Z,31.1
2018-09-14T12:53:59.287Z,31.1
2018-09-14T12:55:01.721Z,31.1
2018-09-14T12:56:04.167Z,31.1
2018-09-14T12:57:06.617Z,31.1
2018-09-14T12:58:09.079Z,31.1
2018-09-14T12:59:11.515Z,31.1
2018-09-14T13:00:13.954Z,31.1
2018-09-14T13:01:16.387Z,31.1
2018-09-14T13:02:18.828Z,31.1
2018-09-14T13:03:21.277Z,31.1
2018-09-14T13:04:24.114Z,31.1
2018-09-14T13:05:26.788Z,31.1
2018-09-14T13:06:29.218Z,31.1
2018-09-14T13:07:31.660Z,31.1
2018-09-14T13:08:34.085Z,31.1
2018-09-14T13:09:36.525Z,31.1
2018-09-14T13:10:38.958Z,31.1
2018-09-14T13:11:41.387Z,31.1
2018-09-14T13:12:43.843Z,31.1
2018-09-14T13:13:46.297Z,31.1
2018-09-14T13:14:48.823Z,31.1
2018-09-14T13:15:51.386Z,31.1
2018-09-14T13:16:53.820Z,31.1
2018-09-14T13:17:56.250Z,31.1
2018-09-14T13:18:58.677Z,31.1
2018-09-14T13:20:01.141Z,31.1
2018-09-14T13:21:03.568Z,31.1
2018-09-14T13:22:05.720Z,31.1
2018-09-14T13:23:08.152Z,31.1
2018-09-14T13:24:10.771Z,31.1
2018-09-14T13:25:13.276Z,31
2018-09-14T13:26:15.710Z,31
2018-09-14T13:27:18.146Z,31.1
2018-09-14T13:28:20.585Z,31.1
2018-09-14T13:29:22.753Z,31.1
2018-09-14T13:30:25.300Z,31
2018-09-14T13:31:27.206Z,31.1
2018-09-14T13:32:29.643Z,31
2018-09-14T13:33:32.091Z,31
2018-09-14T13:34:34.514Z,31
2018-09-14T13:35:36.955Z,31
2018-09-14T13:36:39.384Z,31
2018-09-14T13:37:41.838Z,31
2018-09-14T13:38:44.278Z,31
2018-09-14T13:39:46.727Z,31
2018-09-14T13:40:49.175Z,31
2018-09-14T13:41:51.624Z,31
2018-09-14T13:42:54.075Z,31
2018-09-14T13:43:56.511Z,31
2018-09-14T13:44:58.937Z,31
2018-09-14T13:46:01.386Z,31
2018-09-14T13:47:03.819Z,31
2018-09-14T13:48:06.266Z,31
2018-09-14T13:49:08.459Z,31
2018-09-14T13:50:10.917Z,31
2018-09-14T13:51:13.347Z,31
2018-09-14T13:52:15.797Z,31
2018-09-14T13:53:18.242Z,31
2018-09-14T13:54:20.676Z,31
2018-09-14T13:55:23.116Z,31
2018-09-14T13:56:25.565Z,31
2018-09-14T13:57:27.998Z,31
2018-09-14T13:58:30.429Z,31
2018-09-14T13:59:32.589Z,31
2018-09-14T14:00:35.019Z,31
2018-09-14T14:01:37.761Z,31
2018-09-14T14:02:40.366Z,31
2018-09-14T14:03:42.816Z,31
2018-09-14T14:04:45.248Z,31
2018-09-14T14:05:47.696Z,31